createdAt,value
2023-05-21T00:02:00.032Z,14.45
2023-05-21T00:04:28.804Z,14.42
2023-05-21T00:06:55.800Z,14.41
2023-05-21T00:09:23.171Z,14.38
2023-05-21T00:11:51.247Z,14.36
2023-05-21T00:14:18.397Z,14.34
2023-05-21T00:16:47.043Z,14.30
2023-05-21T00:19:14.306Z,14.27
2023-05-21T00:21:41.215Z,14.26
2023-05-21T00:24:09.833Z,14.22
2023-05-21T00:26:37.152Z,14.20
2023-05-21T00:29:05.060Z,14.16
2023-05-21T00:31:32.277Z,14.14
2023-05-21T00:33:59.617Z,14.13
2023-05-21T00:36:27.336Z,14.12
2023-05-21T00:38:54.154Z,14.12
2023-05-21T00:41:23.234Z,14.14
2023-05-21T00:43:50.473Z,14.14
2023-05-21T00:46:21.186Z,14.12
2023-05-21T00:48:49.342Z,14.12
2023-05-21T00:51:18.773Z,14.13
2023-05-21T00:53:46.647Z,14.14
2023-05-21T00:56:14.176Z,14.14
2023-05-21T00:58:41.825Z,14.15
2023-05-21T01:01:13.761Z,14.15
2023-05-21T01:03:42.335Z,14.16
2023-05-21T01:06:10.899Z,14.16
2023-05-21T01:08:40.697Z,14.16
2023-05-21T01:11:10.987Z,14.17
2023-05-21T01:13:41.343Z,14.18
2023-05-21T01:16:09.533Z,14.18
2023-05-21T01:18:38.659Z,14.17
2023-05-21T01:21:07.666Z,14.16
2023-05-21T01:23:34.914Z,14.16
2023-05-21T01:26:02.467Z,14.16
2023-05-21T01:28:29.934Z,14.14
2023-05-21T01:31:05.062Z,14.13
2023-05-21T01:33:46.864Z,14.13
2023-05-21T01:36:24.313Z,14.12
2023-05-21T01:39:02.093Z,14.14
2023-05-21T01:41:36.443Z,14.12
2023-05-21T01:44:10.868Z,14.13
2023-05-21T01:46:38.879Z,14.11
2023-05-21T01:49:07.816Z,14.11
2023-05-21T01:51:35.982Z,14.11
2023-05-21T01:54:03.496Z,14.10
2023-05-21T01:56:33.781Z,14.08
2023-05-21T01:59:01.602Z,14.06
2023-05-21T02:01:30.368Z,14.07
2023-05-21T02:03:58.452Z,14.07
2023-05-21T02:06:25.669Z,14.05
2023-05-21T02:08:52.967Z,14.07
2023-05-21T02:11:20.833Z,14.06
2023-05-21T02:13:48.491Z,14.02
2023-05-21T02:16:15.972Z,14.00
2023-05-21T02:18:46.504Z,14.02
2023-05-21T02:21:13.553Z,14.00
2023-05-21T02:23:41.787Z,14.01
2023-05-21T02:26:09.174Z,13.99
2023-05-21T02:28:36.407Z,13.97
2023-05-21T02:31:03.947Z,13.97
2023-05-21T02:33:31.488Z,13.98
2023-05-21T02:35:58.650Z,13.97
2023-05-21T02:38:26.016Z,13.98
2023-05-21T02:40:53.108Z,13.98
2023-05-21T02:43:20.633Z,13.97
2023-05-21T02:45:47.643Z,13.95
2023-05-21T02:48:14.673Z,13.95
2023-05-21T02:50:43.033Z,13.92
2023-05-21T02:53:10.499Z,13.91
2023-05-21T02:55:38.164Z,13.90
2023-05-21T02:58:05.415Z,13.89
2023-05-21T03:00:32.697Z,13.87
2023-05-21T03:03:00.242Z,13.85
2023-05-21T03:05:27.978Z,13.85
2023-05-21T03:07:55.861Z,13.82
2023-05-21T03:10:22.793Z,13.78
2023-05-21T03:12:50.454Z,13.75
2023-05-21T03:15:18.331Z,13.73
2023-05-21T03:17:45.502Z,13.69
2023-05-21T03:20:18.726Z,13.69
2023-05-21T03:22:46.656Z,13.65
2023-05-21T03:25:13.928Z,13.62
2023-05-21T03:27:41.061Z,13.61
2023-05-21T03:30:09.651Z,13.56
2023-05-21T03:32:41.324Z,13.53
2023-05-21T03:35:08.808Z,13.50
2023-05-21T03:37:35.877Z,13.50
2023-05-21T03:40:03.570Z,13.50
2023-05-21T03:42:31.710Z,13.49
2023-05-21T03:44:58.777Z,13.49
2023-05-21T03:47:25.764Z,13.47
2023-05-21T03:49:52.658Z,13.47
2023-05-21T03:52:19.766Z,13.48
2023-05-21T03:54:46.792Z,13.48
2023-05-21T03:57:13.696Z,13.45
2023-05-21T03:59:40.945Z,13.46
2023-05-21T04:02:08.455Z,13.46
2023-05-21T04:04:35.611Z,13.45
2023-05-21T04:07:04.644Z,13.45
2023-05-21T04:09:31.445Z,13.46
2023-05-21T04:11:59.075Z,13.47
2023-05-21T04:14:26.418Z,13.48
2023-05-21T04:16:53.591Z,13.49
2023-05-21T04:19:20.824Z,13.49
2023-05-21T04:21:48.137Z,13.51
2023-05-21T04:24:15.193Z,13.53
2023-05-21T04:26:42.559Z,13.57
2023-05-21T04:29:10.040Z,13.58
2023-05-21T04:31:37.192Z,13.60
2023-05-21T04:34:05.041Z,13.63
2023-05-21T04:36:31.850Z,13.64
2023-05-21T04:38:59.163Z,13.68
2023-05-21T04:41:25.943Z,13.71
2023-05-21T04:43:55.798Z,13.73
2023-05-21T04:46:25.267Z,13.75
2023-05-21T04:48:55.600Z,13.78
2023-05-21T04:51:24.676Z,13.81
2023-05-21T04:53:52.586Z,13.84
2023-05-21T04:56:20.293Z,13.87
2023-05-21T04:58:49.467Z,13.88
2023-05-21T05:01:16.451Z,13.91
2023-05-21T05:03:43.461Z,13.93
2023-05-21T05:06:11.233Z,13.95
2023-05-21T05:08:38.915Z,13.98
2023-05-21T05:11:06.106Z,14.02
2023-05-21T05:13:32.910Z,14.03
2023-05-21T05:16:00.427Z,14.06
2023-05-21T05:18:27.613Z,14.10
2023-05-21T05:20:54.581Z,14.14
2023-05-21T05:23:21.876Z,14.16
2023-05-21T05:25:49.107Z,14.20
2023-05-21T05:28:15.996Z,14.21
2023-05-21T05:30:43.000Z,14.25
2023-05-21T05:33:09.950Z,14.28
2023-05-21T05:35:37.145Z,14.30
2023-05-21T05:38:04.463Z,14.35
2023-05-21T05:40:31.775Z,14.41
2023-05-21T05:42:58.986Z,14.44
2023-05-21T05:45:26.779Z,14.47
2023-05-21T05:47:53.712Z,14.55
2023-05-21T05:50:21.497Z,14.57
2023-05-21T05:52:48.131Z,14.62
2023-05-21T05:55:15.710Z,14.67
2023-05-21T05:57:44.984Z,14.72
2023-05-21T06:00:12.560Z,14.73
2023-05-21T06:02:39.761Z,14.79
2023-05-21T06:05:07.638Z,14.83
2023-05-21T06:07:34.467Z,14.87
2023-05-21T06:10:02.194Z,14.90
2023-05-21T06:12:29.841Z,14.94
2023-05-21T06:14:56.816Z,14.97
2023-05-21T06:17:23.845Z,15.01
2023-05-21T06:19:51.517Z,15.04
2023-05-21T06:22:19.269Z,15.07
2023-05-21T06:24:46.438Z,15.07
2023-05-21T06:27:13.206Z,15.06
2023-05-21T06:29:40.953Z,15.06
2023-05-21T06:32:10.832Z,15.11
2023-05-21T06:34:38.199Z,15.15
2023-05-21T06:37:05.496Z,15.17
2023-05-21T06:39:32.548Z,15.22
2023-05-21T06:41:59.617Z,15.24
2023-05-21T06:44:26.868Z,15.29
2023-05-21T06:46:53.742Z,15.32
2023-05-21T06:49:20.892Z,15.38
2023-05-21T06:51:48.639Z,15.45
2023-05-21T06:54:15.581Z,15.50
2023-05-21T06:56:42.732Z,15.55
2023-05-21T06:59:11.055Z,15.59
2023-05-21T07:01:39.693Z,15.63
2023-05-21T07:04:08.490Z,15.67
2023-05-21T07:06:36.651Z,15.74
2023-05-21T07:09:05.515Z,15.79
2023-05-21T07:11:33.033Z,15.87
2023-05-21T07:14:00.907Z,15.92
2023-05-21T07:16:29.491Z,15.99
2023-05-21T07:18:56.516Z,16.06
2023-05-21T07:21:24.271Z,16.15
2023-05-21T07:23:51.502Z,16.23
2023-05-21T07:26:19.256Z,16.35
2023-05-21T07:28:46.270Z,16.48
2023-05-21T07:31:13.300Z,16.58
2023-05-21T07:33:40.529Z,16.75
2023-05-21T07:36:07.630Z,16.82
2023-05-21T07:38:34.826Z,16.93
2023-05-21T07:41:01.761Z,17.03
2023-05-21T07:43:29.028Z,17.00
2023-05-21T07:45:55.919Z,17.11
2023-05-21T07:48:22.976Z,17.26
2023-05-21T07:50:52.471Z,17.39
2023-05-21T07:53:19.769Z,17.57
2023-05-21T07:55:47.982Z,17.67
2023-05-21T07:58:18.847Z,17.78
2023-05-21T08:00:47.536Z,17.93
2023-05-21T08:03:16.532Z,18.00
2023-05-21T08:05:50.839Z,18.06
2023-05-21T08:08:19.229Z,18.15
2023-05-21T08:10:47.766Z,18.17
2023-05-21T08:13:16.296Z,18.18
2023-05-21T08:15:43.402Z,18.17
2023-05-21T08:18:11.869Z,18.25
2023-05-21T08:20:38.895Z,18.36
2023-05-21T08:23:06.197Z,18.42
2023-05-21T08:25:33.209Z,18.48
2023-05-21T08:27:59.999Z,18.54
2023-05-21T08:30:26.906Z,18.52
2023-05-21T08:32:54.951Z,18.56
2023-05-21T08:35:22.179Z,18.67
2023-05-21T08:37:49.317Z,18.66
2023-05-21T08:40:16.361Z,18.63
2023-05-21T08:42:47.232Z,18.71
2023-05-21T08:45:20.700Z,18.78
2023-05-21T08:47:54.928Z,18.78
2023-05-21T08:50:24.377Z,18.78
2023-05-21T08:52:52.524Z,18.83
2023-05-21T08:55:19.873Z,18.91
2023-05-21T08:57:46.883Z,18.90
2023-05-21T09:00:14.209Z,19.05
2023-05-21T09:02:43.864Z,19.18
2023-05-21T09:05:11.853Z,19.28
2023-05-21T09:08:02.295Z,19.41
2023-05-21T09:10:37.288Z,19.44
2023-05-21T09:13:04.935Z,19.58
2023-05-21T09:15:32.706Z,19.66
2023-05-21T09:17:59.856Z,19.79
2023-05-21T09:20:28.220Z,19.92
2023-05-21T09:22:55.677Z,20.09
2023-05-21T09:25:29.839Z,20.25
2023-05-21T09:27:56.792Z,20.27
2023-05-21T09:30:26.785Z,20.39
2023-05-21T09:33:00.186Z,20.51
2023-05-21T09:35:27.515Z,20.62
2023-05-21T09:37:55.540Z,20.69
2023-05-21T09:40:23.887Z,20.74
2023-05-21T09:42:52.587Z,20.75
2023-05-21T09:45:26.911Z,20.79
2023-05-21T09:47:55.827Z,20.74
2023-05-21T09:50:29.727Z,20.74
2023-05-21T09:52:57.440Z,20.79
2023-05-21T09:55:29.117Z,20.63
2023-05-21T09:57:58.912Z,20.55
2023-05-21T10:00:28.370Z,20.57
2023-05-21T10:03:01.045Z,20.55
2023-05-21T10:05:30.110Z,20.52
2023-05-21T10:08:06.369Z,20.56
2023-05-21T10:10:34.047Z,20.64
2023-05-21T10:13:08.624Z,20.71
2023-05-21T10:15:41.444Z,20.80
2023-05-21T10:18:12.460Z,20.98
2023-05-21T10:20:40.141Z,21.08
2023-05-21T10:23:07.979Z,21.20
2023-05-21T10:25:36.181Z,21.40
2023-05-21T10:28:03.969Z,21.51
2023-05-21T10:30:31.787Z,21.66
2023-05-21T10:33:01.832Z,21.75
2023-05-21T10:35:30.851Z,21.81
2023-05-21T10:37:59.113Z,21.67
2023-05-21T10:40:26.101Z,21.79
2023-05-21T10:43:42.334Z,21.89
2023-05-21T10:46:15.602Z,21.81
2023-05-21T10:49:06.171Z,21.80
2023-05-21T10:51:53.749Z,21.71
2023-05-21T10:54:42.784Z,21.68
2023-05-21T10:57:32.805Z,21.63
2023-05-21T11:00:01.021Z,21.59
2023-05-21T11:02:29.180Z,21.53
2023-05-21T11:05:00.394Z,21.52
2023-05-21T11:07:58.712Z,21.50
2023-05-21T11:10:36.266Z,21.35
2023-05-21T11:13:16.755Z,21.35
2023-05-21T11:15:59.493Z,21.36
2023-05-21T11:18:35.882Z,21.40
2023-05-21T11:21:06.555Z,21.51
2023-05-21T11:24:15.787Z,21.59
2023-05-21T11:26:50.247Z,21.52
2023-05-21T11:29:19.490Z,21.53
2023-05-21T11:31:47.871Z,21.64
2023-05-21T11:34:18.727Z,21.69
2023-05-21T11:36:50.072Z,21.89
2023-05-21T11:39:22.142Z,21.99
2023-05-21T11:42:04.339Z,22.15
2023-05-21T11:44:42.119Z,22.34
2023-05-21T11:47:12.592Z,22.49
2023-05-21T11:49:39.837Z,22.36
2023-05-21T11:52:08.949Z,22.24
2023-05-21T11:54:46.230Z,22.28
2023-05-21T11:57:18.737Z,22.39
2023-05-21T11:59:46.583Z,22.57
2023-05-21T12:02:20.952Z,22.75
2023-05-21T12:04:50.756Z,22.95
2023-05-21T12:07:19.754Z,23.08
2023-05-21T12:09:49.014Z,22.89
2023-05-21T12:12:21.478Z,23.13
2023-05-21T12:14:50.962Z,23.19
2023-05-21T12:17:19.780Z,23.24
2023-05-21T12:19:47.973Z,23.45
2023-05-21T12:22:16.562Z,23.57
2023-05-21T12:24:46.474Z,23.63
2023-05-21T12:27:16.634Z,23.81
2023-05-21T12:29:47.536Z,23.93
2023-05-21T12:32:15.450Z,23.95
2023-05-21T12:34:44.906Z,24.09
2023-05-21T12:37:16.939Z,24.24
2023-05-21T12:39:45.238Z,24.25
2023-05-21T12:42:13.121Z,24.67
2023-05-21T12:44:44.623Z,25.00
2023-05-21T12:47:12.999Z,25.28
2023-05-21T12:49:42.008Z,25.66
2023-05-21T12:52:12.077Z,25.88
2023-05-21T12:54:43.086Z,26.13
2023-05-21T12:57:18.677Z,26.74
2023-05-21T12:59:52.301Z,27.46
2023-05-21T13:02:23.292Z,27.91
2023-05-21T13:04:58.332Z,28.28
2023-05-21T13:07:30.010Z,28.64
2023-05-21T13:09:57.817Z,28.54
2023-05-21T13:12:29.815Z,28.83
2023-05-21T13:14:59.316Z,28.71
2023-05-21T13:17:27.664Z,29.13
2023-05-21T13:20:14.960Z,29.63
2023-05-21T13:22:46.800Z,30.02
2023-05-21T13:25:20.006Z,29.84
2023-05-21T13:27:48.909Z,30.52
2023-05-21T13:30:15.995Z,30.98
2023-05-21T13:32:43.477Z,31.10
2023-05-21T13:35:12.233Z,31.31
2023-05-21T13:37:41.456Z,31.60
2023-05-21T13:40:16.785Z,31.57
2023-05-21T13:42:47.051Z,31.90
2023-05-21T13:45:19.148Z,32.14
2023-05-21T13:47:47.856Z,32.23
2023-05-21T13:50:15.762Z,32.20
2023-05-21T13:52:43.523Z,32.07
2023-05-21T13:55:10.825Z,31.81
2023-05-21T13:57:40.116Z,31.36
2023-05-21T14:00:11.136Z,31.32
2023-05-21T14:02:38.571Z,31.27
2023-05-21T14:05:06.217Z,31.23
2023-05-21T14:07:33.667Z,31.65
2023-05-21T14:10:00.731Z,31.94
2023-05-21T14:12:29.592Z,32.16
2023-05-21T14:14:56.416Z,31.84
2023-05-21T14:17:23.452Z,31.73
2023-05-21T14:19:50.541Z,31.60
2023-05-21T14:22:17.424Z,31.60
2023-05-21T14:24:44.415Z,31.84
2023-05-21T14:27:13.171Z,32.08
2023-05-21T14:29:41.704Z,32.19
2023-05-21T14:32:09.095Z,32.31
2023-05-21T14:34:36.257Z,32.21
2023-05-21T14:37:03.502Z,32.47
2023-05-21T14:39:30.406Z,32.55
2023-05-21T14:41:57.723Z,32.62
2023-05-21T14:44:24.414Z,32.80
2023-05-21T14:46:51.928Z,32.71
2023-05-21T14:49:20.030Z,32.56
2023-05-21T14:51:50.432Z,32.72
2023-05-21T14:54:17.714Z,32.84
2023-05-21T14:56:44.624Z,32.12
2023-05-21T14:59:12.755Z,32.20
2023-05-21T15:01:41.562Z,32.36
2023-05-21T15:04:09.045Z,32.65
2023-05-21T15:06:36.830Z,32.72
2023-05-21T15:09:04.205Z,32.54
2023-05-21T15:11:31.408Z,32.42
2023-05-21T15:13:58.478Z,32.50
2023-05-21T15:16:25.463Z,32.62
2023-05-21T15:18:53.570Z,32.60
2023-05-21T15:21:20.498Z,32.23
2023-05-21T15:23:47.446Z,32.38
2023-05-21T15:26:14.622Z,32.20
2023-05-21T15:28:41.734Z,32.22
2023-05-21T15:31:09.259Z,32.32
2023-05-21T15:33:36.976Z,32.35
2023-05-21T15:36:04.097Z,32.32
2023-05-21T15:38:31.214Z,32.16
2023-05-21T15:41:00.511Z,31.87
2023-05-21T15:43:27.671Z,32.02
2023-05-21T15:45:54.925Z,31.77
2023-05-21T15:48:23.130Z,31.82
2023-05-21T15:50:50.261Z,31.66
2023-05-21T15:53:17.147Z,31.43
2023-05-21T15:55:44.904Z,31.16
2023-05-21T15:58:11.696Z,30.96
2023-05-21T16:00:39.822Z,30.62
2023-05-21T16:03:06.877Z,30.40
2023-05-21T16:05:33.945Z,30.15
2023-05-21T16:08:00.943Z,29.80
2023-05-21T16:10:28.264Z,29.20
2023-05-21T16:12:55.239Z,28.87
2023-05-21T16:15:22.937Z,28.49
2023-05-21T16:17:51.240Z,27.98
2023-05-21T16:20:18.890Z,27.57
2023-05-21T16:22:46.520Z,27.48
2023-05-21T16:25:13.493Z,27.47
2023-05-21T16:27:40.502Z,27.44
2023-05-21T16:30:08.517Z,27.21
2023-05-21T16:32:36.429Z,27.04
2023-05-21T16:35:03.899Z,27.03
2023-05-21T16:37:30.825Z,27.08
2023-05-21T16:39:58.024Z,27.21
2023-05-21T16:42:25.077Z,27.32
2023-05-21T16:44:52.957Z,27.49
2023-05-21T16:47:20.424Z,27.69
2023-05-21T16:49:47.842Z,27.74
2023-05-21T16:52:14.732Z,27.74
2023-05-21T16:54:44.015Z,27.77
2023-05-21T16:57:12.415Z,27.75
2023-05-21T16:59:39.948Z,27.57
2023-05-21T17:02:09.907Z,27.45
2023-05-21T17:04:37.169Z,27.35
2023-05-21T17:07:05.117Z,27.18
2023-05-21T17:09:32.083Z,27.09
2023-05-21T17:11:59.129Z,26.97
2023-05-21T17:14:34.379Z,26.92
2023-05-21T17:17:02.078Z,26.83
2023-05-21T17:19:30.747Z,26.75
2023-05-21T17:21:58.243Z,26.62
2023-05-21T17:24:25.587Z,26.55
2023-05-21T17:26:53.836Z,26.42
2023-05-21T17:29:21.080Z,26.32
2023-05-21T17:31:48.364Z,26.17
2023-05-21T17:34:16.594Z,26.06
2023-05-21T17:36:44.280Z,25.95
2023-05-21T17:39:11.216Z,25.79
2023-05-21T17:41:39.346Z,25.66
2023-05-21T17:44:06.246Z,25.56
2023-05-21T17:46:33.785Z,25.43
2023-05-21T17:49:02.559Z,25.36
2023-05-21T17:51:29.964Z,25.30
2023-05-21T17:53:57.148Z,25.24
2023-05-21T17:56:24.457Z,25.13
2023-05-21T17:58:51.557Z,25.07
2023-05-21T18:01:19.683Z,24.98
2023-05-21T18:03:47.246Z,24.95
2023-05-21T18:06:15.561Z,24.93
2023-05-21T18:08:43.705Z,24.89
2023-05-21T18:11:10.601Z,24.80
2023-05-21T18:13:37.637Z,24.69
2023-05-21T18:16:05.299Z,24.67
2023-05-21T18:18:33.349Z,24.57
2023-05-21T18:21:00.430Z,24.49
2023-05-21T18:23:28.748Z,24.37
2023-05-21T18:25:56.227Z,24.25
2023-05-21T18:28:23.217Z,24.14
2023-05-21T18:30:50.660Z,24.04
2023-05-21T18:33:20.634Z,24.01
2023-05-21T18:35:48.068Z,23.98
2023-05-21T18:38:15.210Z,23.90
2023-05-21T18:40:42.517Z,23.86
2023-05-21T18:43:10.876Z,23.76
2023-05-21T18:45:37.713Z,23.76
2023-05-21T18:48:04.980Z,23.67
2023-05-21T18:50:32.513Z,23.62
2023-05-21T18:53:00.883Z,23.57
2023-05-21T18:55:27.989Z,23.53
2023-05-21T18:57:55.687Z,23.46
2023-05-21T19:00:24.591Z,23.40
2023-05-21T19:02:52.281Z,23.34
2023-05-21T19:05:20.835Z,23.24
2023-05-21T19:07:47.695Z,23.19
2023-05-21T19:10:16.366Z,23.16
2023-05-21T19:12:43.526Z,23.13
2023-05-21T19:15:14.348Z,23.11
2023-05-21T19:17:41.463Z,23.07
2023-05-21T19:20:09.874Z,23.05
2023-05-21T19:22:37.347Z,22.96
2023-05-21T19:25:04.647Z,22.90
2023-05-21T19:27:32.817Z,22.85
2023-05-21T19:29:59.751Z,22.81
2023-05-21T19:32:26.625Z,22.79
2023-05-21T19:34:53.701Z,22.73
2023-05-21T19:37:20.869Z,22.71
2023-05-21T19:39:50.445Z,22.69
2023-05-21T19:42:21.431Z,22.68
2023-05-21T19:44:48.915Z,22.64
2023-05-21T19:47:15.941Z,22.60
2023-05-21T19:49:43.179Z,22.54
2023-05-21T19:52:12.095Z,22.40
2023-05-21T19:54:40.045Z,22.27
2023-05-21T19:57:07.755Z,22.20
2023-05-21T19:59:34.922Z,22.05
2023-05-21T20:02:02.219Z,21.96
2023-05-21T20:04:29.064Z,21.84
2023-05-21T20:06:55.955Z,21.66
2023-05-21T20:09:23.133Z,21.55
2023-05-21T20:11:50.553Z,21.48
2023-05-21T20:14:17.663Z,21.34
2023-05-21T20:16:46.988Z,21.31
2023-05-21T20:19:15.352Z,21.15
2023-05-21T20:21:43.062Z,21.01
2023-05-21T20:24:11.513Z,20.99
2023-05-21T20:26:39.842Z,21.01
2023-05-21T20:29:08.111Z,20.98
2023-05-21T20:31:35.854Z,20.90
2023-05-21T20:34:07.536Z,20.73
2023-05-21T20:36:38.082Z,20.64
2023-05-21T20:39:06.325Z,20.66
2023-05-21T20:41:37.487Z,20.63
2023-05-21T20:44:06.123Z,20.58
2023-05-21T20:46:38.249Z,20.58
2023-05-21T20:49:06.299Z,20.55
2023-05-21T20:51:33.984Z,20.46
2023-05-21T20:54:02.350Z,20.37
2023-05-21T20:56:41.666Z,20.38
2023-05-21T20:59:11.054Z,20.37
2023-05-21T21:01:40.735Z,20.34
2023-05-21T21:04:09.537Z,20.32
2023-05-21T21:06:38.392Z,20.21
2023-05-21T21:09:06.928Z,20.14
2023-05-21T21:11:34.323Z,20.13
2023-05-21T21:14:02.528Z,20.16
2023-05-21T21:16:31.032Z,20.11
2023-05-21T21:18:58.141Z,20.07
2023-05-21T21:21:25.340Z,19.99
2023-05-21T21:23:53.172Z,19.94
2023-05-21T21:26:21.926Z,19.93
2023-05-21T21:28:48.937Z,19.88
2023-05-21T21:31:17.588Z,19.83
2023-05-21T21:33:44.925Z,19.82
2023-05-21T21:36:14.680Z,19.80
2023-05-21T21:38:41.779Z,19.76
2023-05-21T21:41:09.633Z,19.71
2023-05-21T21:43:39.000Z,19.64
2023-05-21T21:46:06.370Z,19.60
2023-05-21T21:48:34.621Z,19.54
2023-05-21T21:51:01.492Z,19.56
2023-05-21T21:53:28.645Z,19.53
2023-05-21T21:55:55.928Z,19.50
2023-05-21T21:58:22.815Z,19.50
2023-05-21T22:00:49.950Z,19.47
2023-05-21T22:03:17.382Z,19.47
2023-05-21T22:05:44.682Z,19.43
2023-05-21T22:08:12.115Z,19.42
2023-05-21T22:10:39.674Z,19.39
2023-05-21T22:13:07.114Z,19.33
2023-05-21T22:15:34.632Z,19.28
2023-05-21T22:18:04.710Z,19.24
2023-05-21T22:20:33.119Z,19.18
2023-05-21T22:23:01.174Z,19.16
2023-05-21T22:25:28.253Z,19.13
2023-05-21T22:27:55.638Z,19.08
2023-05-21T22:30:22.757Z,19.09
2023-05-21T22:32:49.825Z,19.07
2023-05-21T22:35:16.761Z,19.09
2023-05-21T22:37:43.712Z,19.04
2023-05-21T22:40:10.877Z,19.07
2023-05-21T22:42:38.428Z,19.03
2023-05-21T22:45:06.835Z,18.99
2023-05-21T22:47:36.898Z,18.97
2023-05-21T22:50:05.056Z,18.96
2023-05-21T22:52:34.375Z,18.96
2023-05-21T22:55:01.415Z,18.97
2023-05-21T22:57:29.614Z,18.98
2023-05-21T22:59:56.512Z,18.94
2023-05-21T23:02:23.673Z,18.90
2023-05-21T23:04:51.417Z,18.88
2023-05-21T23:07:18.517Z,18.86
2023-05-21T23:09:45.759Z,18.88
2023-05-21T23:12:13.509Z,18.87
2023-05-21T23:14:40.387Z,18.88
2023-05-21T23:17:07.582Z,18.89
2023-05-21T23:19:35.412Z,18.87
2023-05-21T23:22:02.827Z,18.86
2023-05-21T23:24:30.776Z,18.85
2023-05-21T23:27:02.103Z,18.86
2023-05-21T23:29:30.498Z,18.88
2023-05-21T23:31:58.208Z,18.88
2023-05-21T23:34:25.582Z,18.84
2023-05-21T23:36:53.236Z,18.91
2023-05-21T23:39:21.101Z,18.90
2023-05-21T23:41:48.479Z,18.87
2023-05-21T23:44:16.256Z,18.87
2023-05-21T23:46:43.539Z,18.84
2023-05-21T23:49:10.606Z,18.83
2023-05-21T23:51:37.756Z,18.85
2023-05-21T23:54:04.696Z,18.82
2023-05-21T23:56:32.130Z,18.82
2023-05-21T23:58:58.989Z,18.80
